Cabot Strait: Past 24 Hour Conditions

 

St. Anthony Airport

02:30 PM NDT 19 April 2014
This table is a summary of hourly weather conditions for the past 24 hours.
Date / Time
(NDT)
Wind(knots) Conditions Visibility(km) Pressure(kPa) Air tempC) Relative humidity(%) Dew pointC) Wind Chill
19 April 2014
14:30 NW 7 Cloudy 16 101.8 0 81 -3 -4
13:30 WNW 6 Cloudy 16 101.9 -1 83 -3 -4
12:30 WNW 6 Cloudy 16 102.0 -1 85 -3 -4
11:30 WSW 11 Light Snow 16 102.0 -1 85 -3 -7
10:30 WSW 10 Light Snow 16 102.1 -1 87 -3 -7
9:30 SW 9 Light Snow 2 102.2 -2 92 -3 -7
8:30 WSW 11 gust 16 Light Snow 2 102.2 -3 92 -4 -9
7:30 SW 12 Light Snow 3 102.3 -2 77 -6 -8
6:30 WSW 10 Cloudy 16 102.3 -2 69 -7 -8
5:30 SW 12 gust 17 Cloudy 16 102.3 -2 67 -7 -8
4:30 SW 14 gust 19 Cloudy 16 102.4 -2 70 -7 -9
3:30 SW 11 gust 16 Cloudy 16 102.5 -2 69 -7 -8
2:30 SW 11 Cloudy 16 102.5 -2 70 -7 -8
1:30 SW 11 Mostly Cloudy 16 102.6 -2 70 -7 -8
0:30 SW 13 Mostly Cloudy 16 102.7 -2 66 -8 -8
18 April 2014
23:30 SW 13 gust 18 Mostly Cloudy 16 102.8 -2 66 -8 -8
22:30 SW 12 Cloudy 16 102.8 -1 61 -8 -7
21:30 SW 12 Cloudy 16 102.9 -1 56 -9 -7
20:30 SW 14 gust 19 Mostly Cloudy 16 102.9 -1 55 -9 -7
19:30 SW 17 gust 24 Mostly Cloudy 16 103.0 0 54 -8 -7
18:30 SW 16 gust 24 Mostly Cloudy 16 103.1 0 53 -9 -7
17:30 SW 19 gust 27 Sunny 16 103.2 0 54 -9 -7
16:30 SW 23 gust 30 Sunny 16 103.2 0 60 -7 *
15:30 SW 19 gust 26 Sunny 16 103.3 0 62 -6 *
14:30 SW 20 gust 27 Light Rain 16 103.4 1 65 -5 *
 
Map of Atlantic - Newfoundland marine weather areas Southwestern Grand Banks - 44138 Banquereau - 44139 Tail of the Bank - 44140 Nickerson Bank - 44251 Northeast Burgeo Bank - 44255 Blanc-Sablon Airport Cap Whittle Chevery Natashquan Airport Heath Point Miscou Island Grand Étang Ingonish Beach North Mountain St.Paul Island J.A. Douglas McCurdy Sydney Airport Charlottetown Airport East Point North Cape Argentia Bonavista Burgeo Cape Race Corner Brook Daniel's Harbour Englee Ferolle Point La Scie Port aux Basques Rocky Harbour Sagona Island St. Anthony Airport St. John's Int'l Airport St. Lawrence Stephenville Airport Twillingate Winterland Wreckhouse Cartwright Airport Mary's Harbour Grates Cove Pool's Island Marticot Island Long Pond Îles de la Madeleine Airport
Legend: buoyBuoy land stationLand Station